Time;durP1;ratioP1;P1;durP2;ratioP2;P2;SDS_P1;SDS_P2;PMS_P1;PMS_P2;Temp;Humidity;BMP_temperature;BMP_pressure;BME280_temperature;BME280_humidity;BME280_pressure;Samples;Min_cycle;Max_cycle;Signal;HPM_P1;HPM_P2
2022/04/06 00:01:40;;;;;;;26.77;17.67;;;19.10;99.90;;;;;;5029567;28;20029;-61
2022/04/06 00:04:06;;;;;;;26.88;18.10;;;19.10;99.90;;;;;;5030927;28;20840;-61
2022/04/06 00:06:32;;;;;;;27.70;18.67;;;19.10;99.90;;;;;;5030801;28;20040;-61
2022/04/06 00:08:58;;;;;;;29.08;17.77;;;19.10;99.90;;;;;;5030937;28;20026;-61
2022/04/06 00:11:23;;;;;;;29.38;18.48;;;19.10;99.90;;;;;;5030892;28;20116;-61
2022/04/06 00:13:50;;;;;;;25.40;17.83;;;19.10;99.90;;;;;;5030797;28;20023;-61
2022/04/06 00:16:16;;;;;;;25.73;18.17;;;19.10;99.90;;;;;;5030878;28;20034;-61
2022/04/06 00:18:42;;;;;;;25.20;18.42;;;19.10;99.90;;;;;;5029412;28;20385;-61
2022/04/06 00:21:08;;;;;;;27.80;18.30;;;19.10;99.90;;;;;;5030542;28;20037;-61
2022/04/06 00:23:34;;;;;;;28.42;18.27;;;19.10;99.90;;;;;;5030591;28;20483;-61
2022/04/06 00:25:59;;;;;;;30.55;19.02;;;19.10;99.90;;;;;;5030564;28;20037;-61
2022/04/06 00:28:26;;;;;;;29.27;19.33;;;19.10;99.90;;;;;;5032680;28;20139;-61
2022/04/06 00:30:52;;;;;;;27.23;18.75;;;19.10;99.90;;;;;;5034086;28;20033;-61
2022/04/06 00:33:18;;;;;;;27.42;18.42;;;19.10;99.90;;;;;;5034624;28;20030;-67
2022/04/06 00:35:43;;;;;;;27.67;18.98;;;19.10;99.90;;;;;;5034502;28;20420;-64
2022/04/06 00:38:09;;;;;;;25.48;18.75;;;19.10;99.90;;;;;;5034076;28;20109;-61
2022/04/06 00:40:36;;;;;;;27.42;19.17;;;19.00;99.90;;;;;;5033850;28;20041;-62
2022/04/06 00:43:11;;;;;;;27.52;19.05;;;19.10;99.90;;;;;;5033915;28;20021;-62
2022/04/06 00:45:41;;;;;;;29.38;19.48;;;19.10;99.90;;;;;;5033878;28;20396;-64
2022/04/06 00:48:08;;;;;;;24.95;17.60;;;19.10;99.90;;;;;;5033845;28;20098;-63
2022/04/06 00:50:34;;;;;;;29.02;20.13;;;19.10;99.90;;;;;;5033925;28;20018;-66
2022/04/06 00:53:00;;;;;;;28.73;18.50;;;19.00;99.90;;;;;;5033688;28;20037;-68
2022/04/06 00:55:37;;;;;;;29.55;21.00;;;19.10;99.90;;;;;;5033726;28;20377;-66
2022/04/06 00:58:04;;;;;;;24.48;17.58;;;19.10;99.90;;;;;;5033611;28;20032;-65
2022/04/06 01:00:30;;;;;;;28.45;19.05;;;19.00;99.90;;;;;;5034083;28;20060;-66
2022/04/06 01:02:56;;;;;;;29.40;18.65;;;19.00;99.90;;;;;;5033717;28;20097;-65
2022/04/06 01:05:23;;;;;;;24.15;17.27;;;19.00;99.90;;;;;;5032228;28;20029;-63
2022/04/06 01:07:51;;;;;;;27.35;19.02;;;19.00;99.90;;;;;;5033756;28;20021;-63
2022/04/06 01:10:17;;;;;;;26.38;18.50;;;19.10;99.90;;;;;;5033455;28;20461;-65
2022/04/06 01:12:48;;;;;;;25.02;17.80;;;19.00;99.90;;;;;;5033473;28;20485;-65
2022/04/06 01:15:15;;;;;;;26.52;18.15;;;19.00;99.90;;;;;;5032196;28;20041;-65
2022/04/06 01:17:41;;;;;;;23.13;16.13;;;19.00;99.90;;;;;;5033229;28;20044;-64
2022/04/06 01:20:09;;;;;;;26.00;17.98;;;19.00;99.90;;;;;;5033213;28;20495;-68
2022/04/06 01:22:36;;;;;;;25.02;17.05;;;19.00;99.90;;;;;;5033296;28;20472;-67
2022/04/06 01:25:05;;;;;;;25.23;16.23;;;19.00;99.90;;;;;;5033281;28;20105;-67
2022/04/06 01:27:31;;;;;;;25.35;17.23;;;19.00;99.90;;;;;;5033053;28;20136;-66
2022/04/06 01:29:56;;;;;;;24.88;17.17;;;19.00;99.90;;;;;;5032978;28;20091;-65
2022/04/06 01:32:25;;;;;;;23.45;17.23;;;19.00;99.90;;;;;;5031598;28;20581;-65
2022/04/06 01:34:53;;;;;;;25.70;17.38;;;19.00;99.90;;;;;;5033019;28;20018;-66
2022/04/06 01:37:19;;;;;;;25.77;16.50;;;19.00;99.90;;;;;;5033072;28;20062;-67
2022/04/06 01:39:46;;;;;;;23.42;16.23;;;19.00;99.90;;;;;;5031916;28;20034;-67
2022/04/06 01:42:17;;;;;;;23.58;15.80;;;19.00;99.90;;;;;;5032904;28;20029;-66
2022/04/06 01:44:47;;;;;;;21.80;15.63;;;19.00;99.90;;;;;;5032882;28;20029;-65
2022/04/06 01:47:17;;;;;;;23.17;15.48;;;19.00;99.90;;;;;;5031438;28;20028;-66
2022/04/06 01:52:28;;;;;;;20.20;14.00;;;19.00;99.90;;;;;;5033015;28;20175;-65
2022/04/06 01:54:56;;;;;;;22.63;14.80;;;19.00;99.90;;;;;;5032614;28;20104;-66
2022/04/06 01:57:23;;;;;;;23.38;15.10;;;19.00;99.90;;;;;;5031405;28;20018;-66
2022/04/06 01:59:49;;;;;;;21.48;15.57;;;19.00;99.90;;;;;;5044933;22;20057;-53
2022/04/06 02:02:19;;;;;;;22.13;14.70;;;19.00;99.90;;;;;;5032420;28;20485;-53
2022/04/06 02:04:45;;;;;;;20.20;14.00;;;19.00;99.90;;;;;;5032394;28;20100;-54
2022/04/06 02:07:11;;;;;;;20.55;14.05;;;19.00;99.90;;;;;;5032296;28;20076;-53
2022/04/06 02:09:39;;;;;;;20.23;14.55;;;19.00;99.90;;;;;;5032496;28;20108;-54
2022/04/06 02:12:06;;;;;;;21.23;15.27;;;19.00;99.90;;;;;;5032470;28;20029;-53
2022/04/06 02:14:32;;;;;;;20.58;14.25;;;19.00;99.90;;;;;;5032260;28;20030;-53
2022/04/06 02:16:59;;;;;;;20.35;14.27;;;19.00;99.90;;;;;;5032205;28;20424;-53
2022/04/06 02:19:25;;;;;;;19.02;13.60;;;19.00;99.90;;;;;;5032204;28;20041;-52
2022/04/06 02:21:52;;;;;;;20.92;14.30;;;19.00;99.90;;;;;;5032019;28;20029;-53
2022/04/06 02:24:18;;;;;;;19.03;13.60;;;19.00;99.90;;;;;;5032112;28;20021;-54
2022/04/06 02:26:45;;;;;;;19.05;13.00;;;19.00;99.90;;;;;;5032038;28;20322;-53
2022/04/06 02:29:12;;;;;;;18.10;12.98;;;19.00;99.90;;;;;;5031941;28;20025;-54
2022/04/06 02:31:38;;;;;;;17.47;13.30;;;19.00;99.90;;;;;;5032035;28;20026;-55
2022/04/06 02:34:04;;;;;;;18.30;13.32;;;19.00;99.90;;;;;;5031911;28;20355;-54
2022/04/06 02:36:29;;;;;;;18.42;13.02;;;19.00;99.90;;;;;;5031908;28;20096;-54
2022/04/06 02:38:55;;;;;;;19.83;13.50;;;19.00;99.90;;;;;;5031720;28;20493;-54
2022/04/06 02:41:21;;;;;;;18.00;12.63;;;19.00;99.90;;;;;;5031777;28;20076;-54
2022/04/06 02:43:47;;;;;;;19.45;13.25;;;19.00;99.90;;;;;;5030457;28;20028;-54
2022/04/06 02:46:13;;;;;;;18.10;12.45;;;19.00;99.90;;;;;;5031597;28;20025;-53
2022/04/06 02:48:39;;;;;;;17.50;11.52;;;19.00;99.90;;;;;;5031910;28;20492;-53
2022/04/06 02:51:05;;;;;;;18.60;12.68;;;19.00;99.90;;;;;;5031363;28;20361;-54
2022/04/06 02:53:31;;;;;;;18.00;12.50;;;19.00;99.90;;;;;;5031439;28;20037;-53
2022/04/06 02:55:57;;;;;;;16.10;12.05;;;19.00;99.90;;;;;;5031531;28;20028;-54
2022/04/06 02:58:22;;;;;;;16.55;11.48;;;19.00;99.90;;;;;;5031475;28;20033;-52
2022/04/06 03:00:48;;;;;;;15.55;11.93;;;19.00;99.90;;;;;;5074546;23;20380;-64
2022/04/06 03:03:14;;;;;;;16.83;11.25;;;19.00;99.90;;;;;;5051384;28;20028;-62
2022/04/06 03:05:40;;;;;;;18.20;11.73;;;19.00;99.90;;;;;;5051417;28;20412;-62
2022/04/06 03:08:06;;;;;;;16.48;11.60;;;19.00;99.90;;;;;;5051166;28;20017;-61
2022/04/06 03:10:33;;;;;;;17.77;12.00;;;19.00;99.90;;;;;;5051209;28;20491;-63
2022/04/06 03:12:59;;;;;;;17.05;11.63;;;19.00;99.90;;;;;;5049784;28;20412;-64
2022/04/06 03:15:24;;;;;;;15.13;10.93;;;19.00;99.90;;;;;;5051068;28;20554;-64
2022/04/06 03:17:50;;;;;;;17.77;11.35;;;19.00;99.90;;;;;;5049854;28;20049;-64
2022/04/06 03:20:16;;;;;;;16.30;11.25;;;19.00;99.90;;;;;;5049827;28;20199;-64
2022/04/06 03:22:42;;;;;;;15.48;10.18;;;19.00;99.90;;;;;;5051369;28;20032;-63
2022/04/06 03:25:09;;;;;;;15.48;10.93;;;19.00;99.90;;;;;;5051640;28;20021;-66
2022/04/06 03:27:35;;;;;;;16.25;11.38;;;19.00;99.90;;;;;;5051175;28;20388;-64
2022/04/06 03:30:05;;;;;;;16.73;10.63;;;19.00;99.90;;;;;;5049930;28;20033;-62
2022/04/06 03:32:31;;;;;;;15.00;10.27;;;18.90;99.90;;;;;;5049613;28;20032;-63
2022/04/06 03:34:57;;;;;;;14.95;10.70;;;19.00;99.90;;;;;;5050917;28;20032;-64
2022/04/06 03:37:24;;;;;;;16.27;10.48;;;19.00;99.90;;;;;;5049694;28;20025;-64
2022/04/06 03:39:50;;;;;;;15.45;11.68;;;19.00;99.90;;;;;;5051010;28;20028;-62
2022/04/06 03:42:16;;;;;;;13.90;9.63;;;19.00;99.90;;;;;;5050917;28;20024;-62
2022/04/06 03:44:43;;;;;;;14.65;10.73;;;19.00;99.90;;;;;;5049831;28;20056;-63
2022/04/06 03:47:08;;;;;;;15.45;10.60;;;19.00;99.90;;;;;;5051038;28;20018;-64
2022/04/06 03:49:34;;;;;;;14.20;9.45;;;18.90;99.90;;;;;;5050862;28;20095;-63
2022/04/06 03:52:00;;;;;;;15.35;10.63;;;18.90;99.90;;;;;;5050866;28;20103;-63
2022/04/06 03:54:26;;;;;;;14.43;9.68;;;18.90;99.90;;;;;;5050788;28;20476;-64
2022/04/06 03:56:51;;;;;;;15.20;11.18;;;18.90;99.90;;;;;;5050726;28;20033;-63
2022/04/06 04:01:51;;;;;;;14.40;9.70;;;18.90;99.90;;;;;;5010469;28;20058;-53
2022/04/06 04:04:17;;;;;;;14.15;9.60;;;18.90;99.90;;;;;;5014699;28;20033;-53
2022/04/06 04:06:44;;;;;;;14.77;8.73;;;18.90;99.90;;;;;;5015033;28;20017;-53
2022/04/06 04:09:09;;;;;;;13.88;9.48;;;18.90;99.90;;;;;;5015004;28;20026;-53
2022/04/06 04:11:35;;;;;;;15.07;10.05;;;18.90;99.90;;;;;;5014757;28;20068;-54
2022/04/06 04:14:01;;;;;;;13.00;9.18;;;18.90;99.90;;;;;;5014613;28;20029;-53
2022/04/06 04:16:27;;;;;;;13.55;9.32;;;18.90;99.90;;;;;;5014618;28;20101;-54
2022/04/06 04:18:52;;;;;;;14.43;9.77;;;18.90;99.90;;;;;;5014623;28;20058;-53
2022/04/06 04:21:33;;;;;;;13.38;9.43;;;18.90;99.90;;;;;;5014565;28;20037;-53
2022/04/06 04:24:01;;;;;;;12.48;8.63;;;18.90;99.90;;;;;;5014514;28;20045;-53
2022/04/06 04:26:27;;;;;;;12.82;9.27;;;18.90;99.90;;;;;;5014508;28;20101;-54
2022/04/06 04:28:52;;;;;;;12.40;8.70;;;18.90;99.90;;;;;;5014412;28;20096;-54
2022/04/06 04:31:19;;;;;;;15.77;9.43;;;18.90;99.90;;;;;;5014372;28;20458;-54
2022/04/06 04:33:44;;;;;;;10.93;8.45;;;18.90;99.90;;;;;;5014460;28;20049;-54
2022/04/06 04:36:10;;;;;;;11.65;8.75;;;18.90;99.90;;;;;;5014319;28;20145;-53
2022/04/06 04:38:39;;;;;;;11.30;8.45;;;18.90;99.90;;;;;;5014320;28;20026;-55
2022/04/06 04:41:08;;;;;;;12.88;8.45;;;18.90;99.90;;;;;;5029000;28;20124;-54
2022/04/06 04:43:35;;;;;;;22.77;10.35;;;18.90;99.90;;;;;;5014277;28;20187;-54
2022/04/06 04:46:01;;;;;;;13.68;9.20;;;18.90;99.90;;;;;;5014149;28;20491;-53
2022/04/06 04:48:27;;;;;;;12.95;8.75;;;18.90;99.90;;;;;;5014131;28;20425;-56
2022/04/06 04:50:53;;;;;;;11.55;8.30;;;18.90;99.90;;;;;;5014134;28;20025;-56
2022/04/06 04:53:18;;;;;;;11.57;8.23;;;18.90;99.90;;;;;;5014107;28;20384;-56
2022/04/06 04:55:44;;;;;;;12.90;9.15;;;18.90;99.90;;;;;;5014459;28;20027;-55
2022/04/06 04:58:10;;;;;;;13.23;9.02;;;18.90;99.90;;;;;;5014029;28;20026;-56
2022/04/06 05:00:36;;;;;;;13.05;8.90;;;18.90;99.90;;;;;;5013769;28;20569;-57
2022/04/06 05:03:02;;;;;;;11.15;8.50;;;18.90;99.90;;;;;;5013914;28;20496;-56
2022/04/06 05:05:28;;;;;;;14.18;8.93;;;18.90;99.90;;;;;;5013730;28;20024;-55
2022/04/06 05:07:57;;;;;;;12.75;9.07;;;18.90;99.90;;;;;;5028917;28;20021;-55
2022/04/06 05:10:23;;;;;;;10.70;7.70;;;18.90;99.90;;;;;;5014030;28;20022;-53
2022/04/06 05:12:49;;;;;;;12.10;7.95;;;18.90;99.90;;;;;;5013621;28;20105;-53
2022/04/06 05:15:15;;;;;;;11.32;7.45;;;18.90;99.90;;;;;;5013872;28;20106;-55
2022/04/06 05:17:41;;;;;;;11.48;8.05;;;18.90;99.90;;;;;;5013487;28;20389;-54
2022/04/06 05:20:10;;;;;;;13.27;9.00;;;18.90;99.90;;;;;;5013449;28;20120;-55
2022/04/06 05:22:37;;;;;;;13.50;8.13;;;18.90;99.90;;;;;;5013431;28;20029;-55
2022/04/06 05:25:10;;;;;;;11.20;8.17;;;18.90;99.90;;;;;;5013357;28;20110;-55
2022/04/06 05:27:46;;;;;;;12.52;8.90;;;18.90;99.90;;;;;;5013391;28;20117;-54
2022/04/06 05:30:14;;;;;;;10.57;7.70;;;18.90;99.90;;;;;;5013336;28;20022;-54
2022/04/06 05:32:40;;;;;;;;;;;18.90;99.90;;;;;;5028912;28;20382;-54
2022/04/06 05:35:08;;;;;;;13.27;7.40;;;18.90;99.90;;;;;;5013201;28;19909;-54
2022/04/06 05:37:34;;;;;;;10.65;7.63;;;18.90;99.90;;;;;;5013155;28;20380;-54
2022/04/06 05:40:00;;;;;;;11.55;7.90;;;18.90;99.90;;;;;;5013184;28;20108;-54
2022/04/06 05:42:26;;;;;;;12.02;7.57;;;18.80;99.90;;;;;;5012986;28;20057;-54
2022/04/06 05:44:52;;;;;;;13.15;8.25;;;18.80;99.90;;;;;;5012912;28;20073;-53
2022/04/06 05:47:18;;;;;;;9.98;6.93;;;18.90;99.90;;;;;;5013263;28;20029;-54
2022/04/06 05:49:44;;;;;;;10.38;7.10;;;18.80;99.90;;;;;;5012798;28;20488;-55
2022/04/06 05:52:10;;;;;;;10.43;7.72;;;18.90;99.90;;;;;;5013040;28;20041;-54
2022/04/06 05:54:36;;;;;;;10.52;7.13;;;18.90;99.90;;;;;;5012907;28;20022;-53
2022/04/06 05:57:03;;;;;;;10.05;7.15;;;18.80;99.90;;;;;;5012642;28;20026;-53
2022/04/06 05:59:29;;;;;;;12.45;7.03;;;18.80;99.90;;;;;;5012570;28;20497;-53
2022/04/06 06:01:54;;;;;;;11.77;8.20;;;18.80;99.90;;;;;;5012592;28;20049;-51
2022/04/06 06:04:20;;;;;;;10.15;7.25;;;18.80;99.90;;;;;;5012681;28;20580;-53
2022/04/06 06:06:46;;;;;;;9.35;6.75;;;18.80;99.90;;;;;;5027881;28;20056;-53
2022/04/06 06:09:12;;;;;;;10.32;7.05;;;18.80;99.90;;;;;;5012442;28;20053;-52
2022/04/06 06:11:37;;;;;;;10.45;7.20;;;18.80;99.90;;;;;;5012450;28;20030;-53
2022/04/06 06:14:03;;;;;;;10.57;7.20;;;18.80;99.90;;;;;;5012566;28;20134;-52
2022/04/06 06:16:29;;;;;;;9.52;6.75;;;18.80;99.90;;;;;;5012317;28;20129;-52
2022/04/06 06:18:56;;;;;;;9.77;6.63;;;18.80;99.90;;;;;;5012252;28;20044;-53
2022/04/06 06:21:22;;;;;;;10.65;6.85;;;18.80;99.90;;;;;;5012302;28;20034;-54
2022/04/06 06:23:48;;;;;;;8.93;6.50;;;18.80;99.90;;;;;;5011275;28;20030;-50
2022/04/06 06:26:14;;;;;;;10.20;6.88;;;18.80;99.90;;;;;;5011803;28;20054;-53
2022/04/06 06:28:40;;;;;;;11.80;7.05;;;18.80;99.90;;;;;;5012186;28;20033;-50
2022/04/06 06:31:06;;;;;;;11.60;7.38;;;18.80;99.90;;;;;;5012293;28;20056;-54
2022/04/06 06:33:31;;;;;;;8.80;6.50;;;18.80;99.90;;;;;;5012207;28;20109;-54
2022/04/06 06:35:57;;;;;;;10.80;6.70;;;18.80;99.90;;;;;;5012196;28;20026;-53
2022/04/06 06:38:23;;;;;;;10.52;6.22;;;18.80;99.90;;;;;;5011830;28;20478;-53
2022/04/06 06:40:49;;;;;;;9.15;6.75;;;18.80;99.90;;;;;;5012088;28;20041;-53
2022/04/06 06:43:17;;;;;;;9.48;6.65;;;18.80;99.90;;;;;;5012278;28;20037;-53
2022/04/06 06:45:43;;;;;;;9.40;6.25;;;18.80;99.90;;;;;;5011863;28;20109;-53
2022/04/06 06:48:09;;;;;;;11.20;6.38;;;18.80;99.90;;;;;;5011679;28;20157;-52
2022/04/06 06:50:35;;;;;;;10.75;6.55;;;18.80;99.90;;;;;;5011784;28;20030;-53
2022/04/06 06:53:01;;;;;;;9.68;6.60;;;18.80;99.90;;;;;;5011679;28;20026;-53
2022/04/06 06:55:26;;;;;;;10.13;6.93;;;18.80;99.90;;;;;;5011815;28;20029;-53
2022/04/06 06:57:52;;;;;;;11.98;7.47;;;18.80;99.90;;;;;;5027087;28;20018;-53
2022/04/06 07:00:18;;;;;;;9.50;5.95;;;18.80;99.90;;;;;;5011448;28;20046;-52
2022/04/06 07:02:44;;;;;;;9.15;6.57;;;18.80;99.90;;;;;;5011746;28;20029;-53
2022/04/06 07:05:11;;;;;;;9.60;5.93;;;18.80;99.90;;;;;;5011677;28;20104;-53
2022/04/06 07:07:49;;;;;;;9.70;6.47;;;18.80;99.90;;;;;;5011766;28;20109;-53
2022/04/06 07:10:15;;;;;;;9.00;6.60;;;18.80;99.90;;;;;;5010399;28;20390;-53
2022/04/06 07:12:41;;;;;;;9.27;6.32;;;18.80;99.90;;;;;;5011649;28;20064;-53
2022/04/06 07:15:07;;;;;;;9.50;5.80;;;18.80;99.90;;;;;;5011505;28;20021;-53
2022/04/06 07:17:33;;;;;;;8.98;6.72;;;18.80;99.90;;;;;;5011608;28;20331;-52
2022/04/06 07:19:59;;;;;;;8.55;6.03;;;18.80;99.90;;;;;;5026685;28;20034;-52
2022/04/06 07:22:25;;;;;;;11.52;6.65;;;18.80;99.90;;;;;;5011706;28;20398;-52
2022/04/06 07:24:51;;;;;;;11.05;6.20;;;18.80;99.90;;;;;;5011507;28;20030;-52
2022/04/06 07:27:21;;;;;;;11.00;6.13;;;18.80;99.90;;;;;;5011464;28;20420;-53
2022/04/06 07:29:47;;;;;;;9.73;6.05;;;18.80;99.90;;;;;;5011281;28;20165;-53
2022/04/06 07:32:12;;;;;;;9.48;6.88;;;18.80;99.90;;;;;;5011418;28;20033;-52
2022/04/06 07:34:38;;;;;;;8.77;6.10;;;18.80;99.90;;;;;;5011398;28;20018;-52
2022/04/06 07:37:04;;;;;;;9.50;6.32;;;18.80;99.90;;;;;;5011509;28;20033;-52
2022/04/06 07:39:30;;;;;;;9.02;6.25;;;18.90;99.90;;;;;;5015241;28;20028;-52
2022/04/06 07:41:56;;;;;;;8.73;5.72;;;18.90;99.90;;;;;;5015409;28;20034;-52
2022/04/06 07:44:25;;;;;;;8.60;6.03;;;18.90;99.90;;;;;;5015415;28;20018;-53
2022/04/06 07:46:52;;;;;;;11.43;6.50;;;18.90;99.90;;;;;;5015438;28;20030;-53
2022/04/06 07:49:18;;;;;;;10.15;6.32;;;18.90;99.90;;;;;;5015304;28;20029;-52
2022/04/06 07:51:45;;;;;;;11.52;6.53;;;18.90;99.90;;;;;;5015367;28;20552;-52
2022/04/06 07:54:11;;;;;;;9.57;6.15;;;18.90;99.90;;;;;;5015087;28;20037;-53
2022/04/06 07:56:39;;;;;;;8.55;6.13;;;18.90;99.90;;;;;;5015145;28;20030;-52
2022/04/06 07:59:05;;;;;;;;;;;18.90;99.90;;;;;;5015628;28;20037;-53
2022/04/06 08:01:31;;;;;;;9.35;5.95;;;18.90;99.90;;;;;;5014694;28;19924;-52
2022/04/06 08:03:57;;;;;;;9.43;5.97;;;18.90;99.90;;;;;;5015091;28;20429;-52
2022/04/06 08:06:24;;;;;;;7.95;5.80;;;19.00;99.90;;;;;;5015023;28;20026;-53
2022/04/06 08:08:52;;;;;;;10.33;6.97;;;19.00;99.90;;;;;;5015033;28;20033;-53
2022/04/06 08:11:19;;;;;;;12.25;6.88;;;19.00;99.90;;;;;;5014983;28;20446;-55
2022/04/06 08:13:44;;;;;;;8.35;5.53;;;19.00;99.90;;;;;;5014624;28;20116;-53
2022/04/06 08:16:10;;;;;;;10.27;6.30;;;19.00;99.90;;;;;;5014648;28;20113;-52
2022/04/06 08:18:36;;;;;;;11.60;6.25;;;19.00;99.90;;;;;;5014693;28;20037;-53
2022/04/06 08:21:05;;;;;;;10.55;6.75;;;19.00;99.90;;;;;;5014499;28;20105;-53
2022/04/06 08:23:31;;;;;;;8.38;5.85;;;19.00;99.90;;;;;;5014600;28;20046;-53
2022/04/06 08:25:57;;;;;;;9.48;6.60;;;19.00;99.90;;;;;;5014762;28;20060;-52
2022/04/06 08:28:23;;;;;;;10.25;6.43;;;19.00;99.90;;;;;;5014591;28;20173;-52
2022/04/06 08:30:48;;;;;;;8.35;5.53;;;19.00;99.90;;;;;;5029662;28;20549;-52
2022/04/06 08:33:15;;;;;;;8.43;5.70;;;19.00;99.90;;;;;;5014478;28;20029;-53
2022/04/06 08:35:42;;;;;;;9.85;6.10;;;19.00;99.90;;;;;;5013087;28;20458;-52
2022/04/06 08:38:12;;;;;;;10.52;6.38;;;19.00;99.90;;;;;;5014302;28;20022;-52
2022/04/06 08:40:39;;;;;;;8.60;6.05;;;19.00;99.90;;;;;;5014317;28;20053;-52
2022/04/06 08:43:07;;;;;;;8.23;5.80;;;19.00;99.90;;;;;;5014245;28;20105;-52
2022/04/06 08:45:34;;;;;;;10.70;5.53;;;19.00;99.90;;;;;;5029413;28;20117;-53
2022/04/06 08:48:02;;;;;;;10.07;5.80;;;19.00;99.90;;;;;;5013846;28;20025;-52
2022/04/06 08:50:29;;;;;;;8.23;6.28;;;19.00;99.90;;;;;;5014255;28;20030;-53
2022/04/06 08:52:57;;;;;;;9.18;6.22;;;19.10;99.90;;;;;;5014365;28;20029;-52
2022/04/06 08:55:23;;;;;;;8.82;5.80;;;19.00;99.90;;;;;;5013981;28;20107;-52
2022/04/06 08:57:49;;;;;;;9.05;5.90;;;19.10;99.90;;;;;;5013918;28;20030;-51
2022/04/06 09:00:17;;;;;;;8.15;5.68;;;19.00;99.90;;;;;;5013545;28;20139;-52
2022/04/06 09:02:43;;;;;;;8.43;6.00;;;19.10;99.90;;;;;;5013739;28;20026;-52
2022/04/06 09:05:10;;;;;;;8.27;6.10;;;19.10;99.90;;;;;;5013781;28;20018;-51
2022/04/06 09:07:40;;;;;;;10.07;6.97;;;19.10;99.90;;;;;;5013849;28;20037;-52
2022/04/06 09:10:07;;;;;;;7.93;5.28;;;19.10;99.90;;;;;;5013838;28;20444;-52
2022/04/06 09:12:34;;;;;;;8.13;5.50;;;19.10;99.90;;;;;;5013674;28;20026;-52
2022/04/06 09:15:08;;;;;;;9.73;5.68;;;19.10;99.90;;;;;;5013772;28;20099;-51
2022/04/06 09:17:49;;;;;;;8.65;5.50;;;19.10;99.90;;;;;;5013435;28;20057;-52
2022/04/06 09:20:23;;;;;;;10.43;5.88;;;19.20;99.90;;;;;;5013403;28;20034;-52
2022/04/06 09:22:49;;;;;;;8.70;5.72;;;19.20;99.90;;;;;;5013577;28;20032;-52
2022/04/06 09:25:16;;;;;;;8.15;5.65;;;19.20;99.90;;;;;;5013431;28;20112;-53
2022/04/06 09:27:42;;;;;;;8.93;5.68;;;19.20;99.90;;;;;;5013454;28;20026;-51
2022/04/06 09:30:08;;;;;;;8.82;5.53;;;19.20;99.90;;;;;;5013156;28;20393;-52
2022/04/06 09:32:34;;;;;;;7.57;5.60;;;19.20;99.90;;;;;;5013367;28;20361;-52
2022/04/06 09:35:00;;;;;;;8.15;5.10;;;19.30;99.90;;;;;;5013479;28;20057;-52
2022/04/06 09:37:29;;;;;;;7.15;4.93;;;19.30;99.90;;;;;;5013119;28;20443;-52
2022/04/06 09:39:56;;;;;;;7.05;4.68;;;19.30;99.90;;;;;;5013166;28;20091;-52
2022/04/06 09:42:24;;;;;;;7.40;5.30;;;19.30;99.90;;;;;;5012919;28;20030;-52
2022/04/06 09:47:40;;;;;;;8.73;5.43;;;19.30;99.90;;;;;;5013262;28;20488;-52
2022/04/06 09:50:15;;;;;;;7.40;5.00;;;19.40;99.90;;;;;;5013017;28;20063;-52
2022/04/06 09:52:44;;;;;;;7.38;4.50;;;19.30;99.90;;;;;;5012939;28;20026;-52
2022/04/06 09:55:13;;;;;;;6.70;4.75;;;19.30;99.90;;;;;;5012772;28;20493;-52
2022/04/06 09:57:59;;;;;;;9.65;5.53;;;19.40;99.90;;;;;;5012706;28;20437;-52
2022/04/06 10:00:27;;;;;;;9.40;4.82;;;19.40;99.90;;;;;;5026595;28;20453;-52
2022/04/06 10:03:04;;;;;;;;;;;19.40;99.90;;;;;;5028267;28;20029;-52
2022/04/06 10:05:32;;;;;;;7.03;4.85;;;19.50;99.90;;;;;;5012723;28;19906;-52
2022/04/06 10:08:05;;;;;;;6.82;4.80;;;19.50;99.90;;;;;;5012503;28;20116;-52
2022/04/06 10:10:32;;;;;;;7.85;4.93;;;19.50;99.90;;;;;;5012642;28;20536;-52
2022/04/06 10:12:59;;;;;;;6.97;5.13;;;19.50;99.90;;;;;;5012551;28;20040;-53
2022/04/06 10:15:25;;;;;;;7.07;4.55;;;19.50;99.90;;;;;;5012610;28;20053;-53
2022/04/06 10:17:52;;;;;;;5.88;4.53;;;19.50;99.90;;;;;;5012427;28;20058;-52
2022/04/06 10:20:22;;;;;;;8.23;5.15;;;19.50;99.90;;;;;;5012263;28;20026;-52
2022/04/06 10:23:13;;;;;;;7.78;4.60;;;19.50;99.90;;;;;;5012458;28;20026;-53
2022/04/06 10:26:14;;;;;;;8.30;5.05;;;19.50;99.90;;;;;;5012248;28;20037;-52
2022/04/06 10:28:44;;;;;;;7.30;4.30;;;19.50;99.90;;;;;;4983949;28;20096;-52
2022/04/06 10:31:13;;;;;;;7.88;5.18;;;19.50;99.90;;;;;;5012225;28;20072;-52
2022/04/06 10:33:39;;;;;;;7.13;5.28;;;19.50;99.90;;;;;;5012082;28;20462;-52
2022/04/06 10:36:20;;;;;;;8.57;5.28;;;19.50;99.90;;;;;;5012332;28;20034;-53
2022/04/06 10:39:08;;;;;;;9.10;4.93;;;19.50;99.90;;;;;;5012087;28;20080;-52
2022/04/06 10:41:39;;;;;;;7.28;4.70;;;19.50;99.90;;;;;;5012195;28;20371;-52
2022/04/06 10:44:05;;;;;;;7.28;4.53;;;19.50;99.90;;;;;;5012203;28;20076;-51
2022/04/06 10:46:40;;;;;;;8.15;4.65;;;19.50;99.90;;;;;;5012135;28;20022;-52
2022/04/06 10:49:06;;;;;;;7.25;5.07;;;19.50;99.90;;;;;;5011820;28;20105;-51
2022/04/06 10:51:37;;;;;;;6.95;4.63;;;19.50;99.90;;;;;;5011796;28;20108;-52
2022/04/06 10:54:12;;;;;;;6.50;4.32;;;19.60;99.90;;;;;;5026656;28;20025;-52
2022/04/06 10:56:50;;;;;;;7.40;4.35;;;19.60;99.90;;;;;;5011737;28;20018;-51
2022/04/06 10:59:16;;;;;;;;;;;19.60;99.90;;;;;;5012046;28;20022;-51
2022/04/06 11:01:51;;;;;;;6.95;4.53;;;19.60;99.90;;;;;;5011573;28;19954;-51
2022/04/06 11:04:24;;;;;;;7.15;4.50;;;19.60;99.90;;;;;;5010303;28;20034;-51
2022/04/06 11:06:59;;;;;;;10.18;5.82;;;19.60;99.90;;;;;;5011620;28;20377;-53
2022/04/06 11:12:35;;;;;;;8.35;5.03;;;19.50;99.90;;;;;;5011647;28;20111;-51
2022/04/06 11:15:01;;;;;;;6.63;4.18;;;19.60;99.90;;;;;;5011816;28;20064;-52
2022/04/06 11:17:34;;;;;;;8.68;4.03;;;19.60;99.90;;;;;;5011370;28;20057;-52
2022/04/06 11:20:00;;;;;;;6.35;4.40;;;19.60;99.90;;;;;;5010134;28;20034;-53
2022/04/06 11:22:26;;;;;;;6.93;4.25;;;19.60;99.90;;;;;;5011500;28;20037;-52
2022/04/06 11:24:54;;;;;;;8.40;4.97;;;19.50;99.90;;;;;;5011663;28;20030;-52
2022/04/06 11:27:33;;;;;;;5.53;4.00;;;19.60;99.90;;;;;;5011574;28;20176;-53
2022/04/06 11:30:07;;;;;;;5.35;3.95;;;19.50;99.90;;;;;;5011415;28;20030;-52
2022/04/06 11:32:33;;;;;;;5.00;4.10;;;19.50;99.90;;;;;;5011601;28;20144;-52
2022/04/06 11:35:00;;;;;;;6.03;4.30;;;19.50;99.90;;;;;;5011304;28;20068;-51
2022/04/06 11:37:26;;;;;;;6.53;4.90;;;19.50;99.90;;;;;;5011375;28;20033;-52
2022/04/06 11:39:57;;;;;;;7.30;4.55;;;19.50;99.90;;;;;;5011192;28;20496;-52
2022/04/06 11:42:23;;;;;;;6.75;4.95;;;19.40;99.90;;;;;;5011433;28;20041;-53
2022/04/06 11:44:50;;;;;;;7.35;4.75;;;19.40;99.90;;;;;;5011344;28;20117;-53
2022/04/06 11:47:25;;;;;;;8.30;4.65;;;19.40;99.90;;;;;;5011424;28;20112;-52
2022/04/06 11:49:51;;;;;;;5.10;3.67;;;19.40;99.90;;;;;;5011325;28;20092;-52
2022/04/06 11:52:17;;;;;;;9.32;5.20;;;19.40;99.90;;;;;;5011293;28;20508;-52
2022/04/06 11:54:51;;;;;;;5.47;4.20;;;19.40;99.90;;;;;;5011260;28;20608;-52
2022/04/06 11:57:17;;;;;;;7.82;4.80;;;19.40;99.90;;;;;;5011263;28;20097;-52
2022/04/06 11:59:55;;;;;;;6.60;4.90;;;19.40;99.90;;;;;;5010869;28;20117;-52
2022/04/06 12:02:21;;;;;;;7.72;4.88;;;19.40;99.90;;;;;;5025894;28;20108;-51
2022/04/06 12:04:59;;;;;;;10.07;6.30;;;19.40;99.90;;;;;;5011101;28;20120;-53
2022/04/06 12:07:25;;;;;;;7.75;5.45;;;19.40;99.90;;;;;;5011042;28;20081;-52
2022/04/06 12:09:51;;;;;;;8.32;5.82;;;19.40;99.90;;;;;;5026260;28;20489;-52
2022/04/06 12:12:18;;;;;;;10.10;6.03;;;19.40;99.90;;;;;;5011026;28;20052;-52
2022/04/06 12:14:44;;;;;;;8.33;5.77;;;19.40;99.90;;;;;;5010855;28;20478;-52
2022/04/06 12:17:12;;;;;;;8.30;5.30;;;19.40;99.90;;;;;;5011108;28;20030;-52
2022/04/06 12:19:38;;;;;;;8.70;6.03;;;19.50;99.90;;;;;;5010947;28;20042;-52
2022/04/06 12:22:07;;;;;;;8.93;5.80;;;19.50;99.90;;;;;;5010944;28;20033;-52
2022/04/06 12:24:43;;;;;;;8.43;5.55;;;19.50;99.90;;;;;;5013455;28;20030;-52
2022/04/06 12:27:10;;;;;;;9.13;6.50;;;19.60;99.90;;;;;;5014845;28;20057;-52
2022/04/06 12:29:38;;;;;;;11.20;6.05;;;19.60;99.90;;;;;;5014645;28;20435;-52
2022/04/06 12:32:04;;;;;;;8.82;5.63;;;19.60;99.90;;;;;;5014635;28;20026;-52
2022/04/06 12:34:33;;;;;;;7.10;5.40;;;19.70;99.90;;;;;;5014201;28;20028;-52
2022/04/06 12:37:29;;;;;;;9.93;7.05;;;19.70;99.90;;;;;;5014336;28;20030;-52
2022/04/06 12:39:51;;;;;;;10.90;6.35;;;19.70;99.90;;;;;;5014061;28;20026;-53
2022/04/06 12:42:18;;;;;;;11.65;6.75;;;19.70;99.90;;;;;;5014167;28;20037;-52
2022/04/06 12:44:58;;;;;;;9.35;6.10;;;19.70;99.90;;;;;;5014252;28;20030;-52
2022/04/06 12:47:25;;;;;;;10.40;7.03;;;19.70;99.90;;;;;;5014151;28;20026;-52
2022/04/06 12:50:08;;;;;;;9.20;6.60;;;19.70;99.90;;;;;;5014018;28;20466;-52
2022/04/06 12:52:37;;;;;;;10.20;6.68;;;19.80;99.90;;;;;;5014046;28;20081;-53